Latest Weather Observations for Creal Reef

IDQ60801

Issued at 11:02 pm EST Tuesday 28 July 2015 (issued every 30 minutes, with the page automatically refreshed every 10 minutes)

About weather observations | Map of weather stations | Latest weather observations for QLD | Other Formats
Station Details ID: 200736 Name: CREAL REEF Lat: -20.53 Lon: 150.38 Height: 1.7 m
Data from the previous 72 hours. | See also: Recent months for locations in Queensland
Date/Time
EST
Temp
°C
App
Temp
°C
Dew
Point
Rel
Hum
%
Delta-T
°C
Wind Press
QNH
hPa
Press
MSL
hPa
Rain
since 9 am
mm
Dir
 
Spd
km/h
Gust
km/h
Spd
kts
Gust
kts
28/11:00pm 21.3 - - - - SSE 44 52 24 28 1023.8 - -
28/10:30pm 21.2 - - - - SSE 43 52 23 28 1024.0 - -
28/10:20pm 21.4 - - - - SSE 43 - 23 - - 1024.0 -
28/10:00pm 21.4 - - - - SSE 41 52 22 28 1024.2 - -
28/09:30pm 21.3 - - - - SSE 44 50 24 27 1024.2 - -
28/09:20pm 21.1 - - - - SSE 43 - 23 - - 1024.1 -
28/09:00pm 21.1 - - - - SSE 39 48 21 26 1024.3 - -
28/08:30pm 21.0 - - - - SSE 43 50 23 27 1024.3 - -
28/08:20pm 21.0 - - - - SSE 41 - 22 - - 1024.2 -
28/08:00pm 20.9 - - - - SSE 43 50 23 27 1024.3 - -
28/07:30pm 20.8 - - - - SSE 41 50 22 27 1024.2 - -
28/07:20pm 20.8 - - - - SSE 39 - 21 - - 1024.0 -
28/07:00pm 20.7 - - - - SSE 41 50 22 27 1023.9 - -
28/06:30pm 20.5 - - - - SSE 41 50 22 27 1023.6 - -
28/06:20pm 20.8 - - - - SSE 43 - 23 - - 1023.4 -
28/06:00pm 20.5 - - - - SSE 41 50 22 27 1023.2 - -
28/05:30pm 20.4 - - - - SSE 41 56 22 30 1022.9 - -
28/05:20pm 20.4 - - - - SSE 43 - 23 - - 1022.7 -
28/05:00pm 20.3 - - - - SSE 44 56 24 30 1022.5 - -
28/04:30pm 20.4 - - - - SSE 43 54 23 29 1022.2 - -
28/04:20pm 20.4 - - - - SSE 44 - 24 - - 1021.9 -
28/04:00pm 20.5 - - - - SSE 41 54 22 29 1022.1 - -
28/03:30pm 20.5 - - - - SSE 46 57 25 31 1021.8 - -
28/03:20pm 20.5 - - - - SSE 48 - 26 - - 1021.7 -
28/03:00pm 20.4 - - - - SSE 43 54 23 29 1021.8 - -
28/02:30pm 20.4 - - - - SSE 44 57 24 31 1021.9 - -
28/02:20pm 20.4 - - - - SSE 43 - 23 - - 1021.9 -
28/02:00pm 20.6 - - - - SSE 43 56 23 30 1021.9 - -
28/01:30pm 20.9 - - - - SSE 43 56 23 30 1022.3 - -
28/01:20pm 20.6 - - - - SSE 46 - 25 - - 1022.2 -
28/01:00pm 20.4 - - - - SSE 50 61 27 33 1022.5 - -
28/12:30pm 20.6 - - - - SSE 52 63 28 34 1022.7 - -
28/12:20pm 20.5 - - - - SSE 52 - 28 - - 1022.7 -
28/12:00pm 20.6 - - - - SSE 52 61 28 33 1023.1 - -
28/11:30am 20.9 - - - - SSE 50 59 27 32 1023.6 - -
28/11:20am 20.8 - - - - SSE 48 - 26 - - 1023.7 -
28/11:00am 21.1 - - - - SSE 46 61 25 33 1024.0 - -
28/10:30am 21.0 - - - - SSE 46 57 25 31 1024.1 - -
28/10:20am 21.2 - - - - SSE 46 - 25 - - 1024.1 -
28/10:00am 21.1 - - - - SSE 48 61 26 33 1024.2 - -
28/09:30am 21.2 - - - - SSE 46 57 25 31 1024.0 - -
28/09:20am 21.1 - - - - SSE 48 - 26 - - 1023.8 -
28/09:00am 21.3 - - - - SSE 44 56 24 30 1023.8 - -
28/08:30am 21.2 - - - - SSE 44 57 24 31 1023.5 - -
28/08:20am 21.4 - - - - SSE 46 - 25 - - 1023.2 -
28/08:00am 21.5 - - - - SSE 43 52 23 28 1023.1 - -
28/07:30am 22.0 - - - - SSE 39 52 21 28 1022.8 - -
28/07:20am 21.8 - - - - SSE 37 - 20 - - 1022.6 -
28/07:00am 21.9 - - - - SSE 44 54 24 29 1022.3 - -
28/06:30am 22.3 - - - - SSE 35 44 19 24 1022.2 - -
28/06:20am 22.3 - - - - SSE 39 - 21 - - 1022.1 -
28/06:00am 22.3 - - - - SSE 35 46 19 25 1022.1 - -
28/05:30am 22.4 - - - - SSE 33 43 18 23 1022.0 - -
28/05:20am 22.2 - - - - SSE 32 - 17 - - 1021.8 -
28/05:00am 22.4 - - - - SSE 32 43 17 23 1021.8 - -
28/04:30am 22.3 - - - - SSE 35 43 19 23 1021.8 - -
28/04:20am 22.3 - - - - SSE 35 - 19 - - 1021.7 -
28/04:00am 22.2 - - - - SSE 32 39 17 21 1021.7 - -
28/03:30am 22.3 - - - - SSE 33 39 18 21 1021.8 - -
28/03:20am 22.0 - - - - SSE 30 - 16 - - 1021.7 -
28/03:00am 22.1 - - - - SE 35 39 19 21 1021.8 - -
28/02:30am 22.2 - - - - SE 32 35 17 19 1021.9 - -
28/02:20am 22.3 - - - - SE 32 - 17 - - 1021.9 -
28/02:00am 22.3 - - - - SE 32 39 17 21 1022.2 - -
28/01:30am 22.4 - - - - SE 35 39 19 21 1022.3 - -
28/01:20am 22.3 - - - - SE 33 - 18 - - 1022.2 -
28/01:00am 22.2 - - - - SSE 33 39 18 21 1022.5 - -
28/12:30am 22.4 - - - - SE 32 35 17 19 1022.6 - -
28/12:20am 22.4 - - - - SE 32 - 17 - - 1022.5 -
28/12:00am 22.3 - - - - SE 32 35 17 19 1022.7 - -
 
Date/Time
EST
Temp
°C
App
Temp
°C
Dew
Point
Rel
Hum
%
Delta-T
°C
Wind Press
QNH
hPa
Press
MSL
hPa
Rain
since 9 am
mm
Dir
 
Spd
km/h
Gust
km/h
Spd
kts
Gust
kts
27/11:30pm 22.4 - - - - SE 32 37 17 20 1022.7 - -
27/11:20pm 22.2 - - - - SSE 32 - 17 - - 1022.7 -
27/11:00pm 22.4 - - - - SSE 32 35 17 19 1022.9 - -
27/10:30pm 22.2 - - - - SSE 28 33 15 18 1023.1 - -
27/10:20pm 22.2 - - - - SSE 26 - 14 - - 1023.1 -
27/10:00pm 22.2 - - - - SSE 24 33 13 18 1023.2 - -
27/09:30pm 22.3 - - - - SSE 26 33 14 18 1022.9 - -
27/09:20pm 22.4 - - - - SSE 28 - 15 - - 1022.8 -
27/09:00pm 22.3 - - - - SSE 24 30 13 16 1022.7 - -
27/08:30pm 22.6 - - - - SE 26 32 14 17 1022.3 - -
27/08:20pm 22.5 - - - - SE 26 - 14 - - 1022.2 -
27/08:00pm 22.5 - - - - SE 26 28 14 15 1022.2 - -
27/07:30pm 22.4 - - - - SE 26 28 14 15 1021.9 - -
27/07:20pm 22.3 - - - - SE 24 - 13 - - 1021.7 -
27/07:00pm 22.4 - - - - SE 26 28 14 15 1021.6 - -
27/06:30pm 22.3 - - - - SSE 28 30 15 16 1021.2 - -
27/06:20pm 22.2 - - - - SSE 26 - 14 - - 1021.0 -
27/06:00pm 22.1 - - - - SE 26 32 14 17 1020.8 - -
27/05:30pm 22.3 - - - - SSE 24 32 13 17 1020.6 - -
27/05:20pm 22.2 - - - - SSE 22 - 12 - - 1020.4 -
27/05:00pm 22.2 - - - - SSE 26 32 14 17 1020.4 - -
27/04:30pm 22.3 - - - - SE 26 30 14 16 1019.9 - -
27/04:20pm 22.3 - - - - SSE 26 - 14 - - 1019.8 -
27/04:00pm 22.3 - - - - SSE 26 30 14 16 1019.8 - -
27/03:30pm 22.3 - - - - SSE 28 32 15 17 1019.6 - -
27/03:20pm 22.4 - - - - SSE 28 - 15 - - 1019.5 -
27/03:00pm 22.4 - - - - SSE 28 32 15 17 1019.7 - -
27/02:30pm 22.5 - - - - S 28 32 15 17 1019.7 - -
27/02:20pm 22.3 - - - - S 30 - 16 - - 1019.6 -
27/02:00pm 22.3 - - - - S 28 32 15 17 1019.8 - -
27/01:30pm 22.4 - - - - SSE 26 30 14 16 1020.0 - -
27/01:20pm 22.6 - - - - SSE 22 - 12 - - 1020.0 -
27/01:00pm 22.7 - - - - SSE 22 24 12 13 1020.4 - -
27/12:30pm 22.8 - - - - SSE 20 24 11 13 1020.9 - -
27/12:20pm 22.5 - - - - SSE 22 - 12 - - 1021.0 -
27/12:00pm 22.6 - - - - SSE 22 26 12 14 1021.4 - -
27/11:30am 22.5 - - - - SSE 22 26 12 14 1021.8 - -
27/11:20am 22.6 - - - - SSE 22 - 12 - - 1021.8 -
27/11:00am 22.5 - - - - SSE 22 24 12 13 1022.2 - -
27/10:30am 22.5 - - - - SSE 22 26 12 14 1022.5 - -
27/10:20am 22.5 - - - - SSE 22 - 12 - - 1022.4 -
27/10:00am 22.5 - - - - SSE 22 24 12 13 1022.7 - -
27/09:30am 22.5 - - - - S 20 24 11 13 1023.0 - -
27/09:20am 22.6 - - - - S 22 - 12 - - 1022.9 -
27/09:00am 22.5 - - - - S 20 24 11 13 1022.9 - -
27/08:30am 23.0 - - - - SSE 20 22 11 12 1022.6 - -
27/08:20am 22.7 - - - - SSE 20 - 11 - - 1022.4 -
27/08:00am 22.8 - - - - SSE 15 20 8 11 1022.4 - -
27/07:30am 22.8 - - - - SE 13 15 7 8 1021.8 - -
27/07:20am 22.8 - - - - ESE 13 - 7 - - 1021.6 -
27/07:00am 22.6 - - - - ESE 13 15 7 8 1021.5 - -
27/06:30am 22.3 - - - - E 11 13 6 7 1021.3 - -
27/06:20am 22.4 - - - - E 13 - 7 - - 1021.0 -
27/06:00am 22.3 - - - - E 13 15 7 8 1021.0 - -
27/05:30am 22.3 - - - - ESE 11 13 6 7 1020.8 - -
27/05:20am 22.3 - - - - ESE 11 - 6 - - 1020.6 -
27/05:00am 22.2 - - - - ESE 13 15 7 8 1020.7 - -
27/04:30am 22.2 - - - - SE 13 15 7 8 1020.6 - -
27/04:20am 22.2 - - - - SE 11 - 6 - - 1020.5 -
27/04:00am 22.2 - - - - SSE 13 15 7 8 1020.6 - -
27/03:30am 22.2 - - - - SSE 13 15 7 8 1020.9 - -
27/03:20am 22.1 - - - - SSE 13 - 7 - - 1020.8 -
27/03:00am 22.1 - - - - SSE 13 13 7 7 1020.9 - -
27/02:30am 22.2 - - - - S 15 15 8 8 1021.1 - -
27/02:20am 22.2 - - - - S 15 - 8 - - 1021.1 -
27/02:00am 22.3 - - - - S 13 15 7 8 1021.3 - -
27/01:30am 22.3 - - - - S 11 11 6 6 1021.5 - -
27/01:20am 22.3 - - - - SSE 9 - 5 - - 1021.6 -
27/01:00am 22.4 - - - - SSE 7 9 4 5 1021.8 - -
27/12:30am 22.5 - - - - SSE 7 9 4 5 1021.9 - -
27/12:20am 22.5 - - - - SSE 7 - 4 - - 1021.9 -
27/12:00am 22.5 - - - - SSE 7 7 4 4 1022.1 - -
 
Date/Time
EST
Temp
°C
App
Temp
°C
Dew
Point
Rel
Hum
%
Delta-T
°C
Wind Press
QNH
hPa
Press
MSL
hPa
Rain
since 9 am
mm
Dir
 
Spd
km/h
Gust
km/h
Spd
kts
Gust
kts
26/11:30pm 22.6 - - - - SE 7 7 4 4 1022.1 - -
26/11:20pm 22.6 - - - - SE 7 - 4 - - 1022.0 -
26/11:00pm 22.7 - - - - ESE 7 9 4 5 1022.3 - -
26/10:30pm 22.8 - - - - ESE 7 9 4 5 1022.4 - -
26/10:20pm 22.8 - - - - ESE 7 - 4 - - 1022.3 -
26/10:00pm 22.8 - - - - ESE 9 9 5 5 1022.3 - -
26/09:30pm 22.9 - - - - ESE 9 11 5 6 1022.1 - -
26/09:20pm 22.7 - - - - ESE 9 - 5 - - 1021.8 -
26/09:00pm 22.8 - - - - ESE 11 13 6 7 1021.7 - -
26/08:30pm 23.0 - - - - E 13 15 7 8 1021.4 - -
26/08:20pm 22.8 - - - - ESE 13 - 7 - - 1021.2 -
26/08:00pm 22.9 - - - - ESE 13 15 7 8 1021.2 - -
26/07:30pm 22.8 - - - - E 13 17 7 9 1020.8 - -
26/07:20pm 22.9 - - - - E 15 - 8 - - 1020.7 -
26/07:00pm 22.9 - - - - E 13 15 7 8 1020.4 - -
26/06:30pm 22.8 - - - - E 13 15 7 8 1019.9 - -
26/06:20pm 22.9 - - - - E 15 - 8 - - 1019.6 -
26/06:00pm 22.9 - - - - ESE 15 17 8 9 1019.3 - -
26/05:30pm 22.9 - - - - ESE 15 17 8 9 1019.0 - -
26/05:20pm 23.0 - - - - ESE 13 - 7 - - 1018.8 -
26/05:00pm 23.0 - - - - ESE 13 15 7 8 1018.8 - -
26/04:30pm 23.1 - - - - ESE 15 17 8 9 1018.5 - -
26/04:20pm 23.1 - - - - ESE 13 - 7 - - 1018.3 -
26/04:00pm 23.1 - - - - ESE 13 15 7 8 1018.2 - -
26/03:30pm 23.1 - - - - ESE 13 15 7 8 1018.1 - -
26/03:20pm 23.1 - - - - ESE 13 - 7 - - 1018.0 -
26/03:00pm 23.1 - - - - ESE 13 13 7 7 1018.0 - -
26/02:30pm 23.3 - - - - ESE 13 13 7 7 1018.3 - -
26/02:20pm 23.2 - - - - ESE 13 - 7 - - 1018.1 -
26/02:00pm 23.2 - - - - ESE 13 15 7 8 1018.3 - -
26/01:30pm 23.2 - - - - E 13 15 7 8 1018.6 - -
26/01:20pm 23.3 - - - - ESE 13 - 7 - - 1018.7 -
26/01:00pm 23.2 - - - - ESE 13 15 7 8 1019.0 - -
26/12:30pm 23.2 - - - - SE 15 17 8 9 1019.5 - -
26/12:20pm 23.2 - - - - SE 15 - 8 - - 1019.5 -
26/12:00pm 23.1 - - - - SE 17 19 9 10 1020.0 - -
26/11:30am 23.2 - - - - ESE 15 15 8 8 1020.5 - -
26/11:20am 23.2 - - - - ESE 15 - 8 - - 1020.6 -
26/11:00am 23.2 - - - - ESE 15 17 8 9 1020.9 - -
26/10:30am 23.2 - - - - ESE 13 15 7 8 1021.3 - -
26/10:20am 23.4 - - - - ESE 15 - 8 - - 1021.4 -
26/10:00am 23.3 - - - - E 13 17 7 9 1021.8 - -
26/09:30am 23.2 - - - - E 15 17 8 9 1022.0 - -
26/09:20am 23.3 - - - - E 15 - 8 - - 1021.9 -
26/09:00am 23.1 - - - - E 17 19 9 10 1022.0 - -
26/08:30am 23.1 - - - - E 17 19 9 10 1021.7 - -
26/08:20am 23.1 - - - - E 17 - 9 - - 1021.4 -
26/08:00am 23.1 - - - - ESE 17 19 9 10 1021.4 - -
26/07:30am 23.0 - - - - ESE 17 19 9 10 1021.2 - -
26/07:20am 22.8 - - - - ESE 17 - 9 - - 1021.1 -
26/07:00am 22.8 - - - - ESE 15 19 8 10 1021.0 - -
26/06:30am 22.7 - - - - E 17 19 9 10 1020.8 - -
26/06:20am 22.7 - - - - ESE 17 - 9 - - 1020.6 -
26/06:00am 22.8 - - - - ESE 15 17 8 9 1020.7 - -
26/05:30am 22.7 - - - - ESE 15 17 8 9 1020.5 - -
26/05:20am 22.8 - - - - ESE 15 - 8 - - 1020.4 -
26/05:00am 22.7 - - - - E 15 17 8 9 1020.4 - -
26/04:30am 22.7 - - - - E 15 19 8 10 1020.1 - -
26/04:20am 22.7 - - - - E 17 - 9 - - 1019.9 -
26/04:00am 22.8 - - - - E 17 19 9 10 1020.0 - -
26/03:30am 22.7 - - - - E 17 20 9 11 1020.0 - -
26/03:20am 22.8 - - - - E 19 - 10 - - 1020.0 -
26/03:00am 22.8 - - - - E 19 20 10 11 1020.3 - -
26/02:30am 22.6 - - - - E 17 20 9 11 1020.5 - -
26/02:20am 22.5 - - - - E 17 - 9 - - 1020.5 -
26/02:00am 22.6 - - - - ESE 17 19 9 10 1021.0 - -
26/01:30am 22.5 - - - - ESE 15 17 8 9 1021.3 - -
26/01:20am 22.6 - - - - ESE 17 - 9 - - 1021.2 -
26/01:00am 22.5 - - - - ESE 17 20 9 11 1021.4 - -
26/12:30am 22.5 - - - - E 19 20 10 11 1021.5 - -
26/12:20am 22.6 - - - - E 19 - 10 - - 1021.4 -
26/12:00am 22.6 - - - - ESE 19 20 10 11 1021.7 - -
 
Date/Time
EST
Temp
°C
App
Temp
°C
Dew
Point
Rel
Hum
%
Delta-T
°C
Wind Press
QNH
hPa
Press
MSL
hPa
Rain
since 9 am
mm
Dir
 
Spd
km/h
Gust
km/h
Spd
kts
Gust
kts
25/11:30pm 22.6 - - - - SE 20 24 11 13 1021.9 - -
25/11:20pm 22.5 - - - - ESE 22 - 12 - - 1021.7 -

Other Formats:

Comma delimited format used in spreadsheet applications
http://www.bom.gov.au/fwo/IDQ60801/IDQ60801.94371.axf

JavaScript Object Notation format (JSON) in row-major order
http://www.bom.gov.au/fwo/IDQ60801/IDQ60801.94371.json